Lowville, Pennsylvania
Current Conditions -  °F | °C
As of 9:51 AM on Sunday 21 Dec 2014 (Local Time) from KERI Reporting Station
Overcast Overcast  
Wind Chill: 26°   Ceiling: 2500
Heat Index: 31°   Visibility: 10mi
Dew Point: 24°   Wind: 5mph
Humidity: 76%   Direction: 180°S
Pressure: 30.32"   Gusts: NA
Location:  42.0384°N, 79.8318°W
Report Text: KERI 211451Z 18004KT 10SM OVC025 M01/M04 A3032 RMK AO2 SLP278 T10061044 51003
Loading
Personal Weather Stations






























Interactive Weather Map New forecast layout! Learn more

10-Day Weather Forecast

Advertisements
Track Severe Weather on mobile